createdAt,value
2022-11-27T00:00:33.576Z,6.10
2022-11-27T00:03:19.011Z,6.10
2022-11-27T00:06:05.270Z,6.07
2022-11-27T00:08:50.887Z,6.40
2022-11-27T00:17:08.550Z,7.32
2022-11-27T00:19:54.120Z,6.40
2022-11-27T00:22:39.574Z,6.03
2022-11-27T00:25:25.398Z,5.90
2022-11-27T00:28:11.030Z,5.60
2022-11-27T00:31:00.532Z,5.75
2022-11-27T00:33:46.236Z,6.03
2022-11-27T00:36:33.847Z,5.20
2022-11-27T00:39:19.359Z,5.72
2022-11-27T00:42:05.211Z,5.07
2022-11-27T00:44:50.688Z,6.20
2022-11-27T00:47:37.922Z,5.72
2022-11-27T00:50:23.880Z,5.93
2022-11-27T00:55:55.342Z,5.38
2022-11-27T00:58:40.711Z,5.45
2022-11-27T01:01:28.285Z,5.50
2022-11-27T01:04:16.385Z,6.15
2022-11-27T01:07:01.893Z,6.28
2022-11-27T01:09:47.937Z,5.85
2022-11-27T01:12:34.084Z,6.07
2022-11-27T01:15:19.730Z,5.65
2022-11-27T01:18:05.777Z,6.22
2022-11-27T01:20:54.171Z,6.80
2022-11-27T01:23:40.254Z,6.35
2022-11-27T01:26:26.529Z,6.22
2022-11-27T01:29:13.310Z,5.97
2022-11-27T01:31:59.254Z,5.85
2022-11-27T01:34:44.792Z,6.18
2022-11-27T01:37:31.810Z,6.25
2022-11-27T01:40:17.260Z,6.05
2022-11-27T01:43:02.762Z,6.45
2022-11-27T01:45:48.492Z,6.35
2022-11-27T01:48:34.364Z,5.78
2022-11-27T01:51:20.894Z,6.18
2022-11-27T01:54:08.965Z,5.78
2022-11-27T01:56:58.902Z,6.05
2022-11-27T01:59:45.680Z,5.85
2022-11-27T02:02:31.448Z,6.28
2022-11-27T02:05:20.824Z,6.18
2022-11-27T02:08:09.385Z,5.53
2022-11-27T02:11:08.029Z,6.43
2022-11-27T02:14:03.261Z,5.60
2022-11-27T02:16:55.659Z,6.60
2022-11-27T02:19:59.680Z,5.97
2022-11-27T02:23:01.682Z,5.70
2022-11-27T02:25:59.254Z,5.18
2022-11-27T02:28:59.180Z,5.90
2022-11-27T02:31:50.508Z,6.38
2022-11-27T02:34:43.092Z,5.28
2022-11-27T02:37:34.531Z,5.38
2022-11-27T02:40:27.227Z,5.07
2022-11-27T02:43:17.971Z,5.28
2022-11-27T02:46:08.081Z,5.53
2022-11-27T02:48:57.950Z,5.90
2022-11-27T02:51:51.433Z,5.85
2022-11-27T02:54:39.884Z,5.60
2022-11-27T02:57:27.735Z,6.22
2022-11-27T03:00:14.515Z,5.68
2022-11-27T03:03:08.844Z,5.10
2022-11-27T03:05:58.053Z,5.28
2022-11-27T03:08:51.433Z,5.55
2022-11-27T03:11:37.881Z,5.53
2022-11-27T03:14:24.862Z,5.85
2022-11-27T03:17:19.596Z,5.15
2022-11-27T03:20:13.020Z,5.28
2022-11-27T03:22:59.317Z,5.85
2022-11-27T03:25:44.808Z,5.47
2022-11-27T03:28:31.576Z,5.35
2022-11-27T03:31:17.535Z,5.53
2022-11-27T03:34:04.330Z,5.28
2022-11-27T03:36:51.220Z,4.90
2022-11-27T03:39:36.861Z,4.70
2022-11-27T03:42:27.826Z,5.05
2022-11-27T03:45:23.089Z,4.68
2022-11-27T03:48:18.680Z,5.25
2022-11-27T03:51:11.668Z,4.57
2022-11-27T03:54:04.722Z,5.38
2022-11-27T03:56:57.887Z,4.70
2022-11-27T03:59:45.880Z,5.00
2022-11-27T04:02:40.888Z,4.63
2022-11-27T04:05:26.675Z,5.00
2022-11-27T04:08:12.168Z,4.38
2022-11-27T04:10:59.255Z,4.63
2022-11-27T04:13:44.846Z,4.82
2022-11-27T04:16:30.637Z,4.18
2022-11-27T04:19:16.398Z,4.65
2022-11-27T04:22:02.093Z,4.80
2022-11-27T04:24:47.742Z,4.30
2022-11-27T04:27:34.832Z,4.50
2022-11-27T04:30:20.733Z,4.00
2022-11-27T04:33:06.309Z,4.32
2022-11-27T04:35:52.307Z,3.45
2022-11-27T04:38:37.618Z,3.92
2022-11-27T04:41:23.339Z,3.55
2022-11-27T04:44:11.218Z,3.63
2022-11-27T04:46:56.859Z,3.75
2022-11-27T04:49:42.290Z,3.78
2022-11-27T04:52:27.947Z,3.60
2022-11-27T04:55:13.480Z,3.45
2022-11-27T04:57:59.161Z,3.85
2022-11-27T05:00:46.459Z,3.47
2022-11-27T05:03:31.880Z,3.40
2022-11-27T05:06:17.449Z,3.58
2022-11-27T05:09:03.094Z,3.25
2022-11-27T05:11:48.614Z,3.20
2022-11-27T05:14:34.558Z,3.65
2022-11-27T05:17:21.743Z,3.35
2022-11-27T05:20:08.633Z,3.00
2022-11-27T05:22:54.557Z,3.53
2022-11-27T05:25:40.196Z,3.15
2022-11-27T05:28:27.005Z,3.25
2022-11-27T05:31:13.014Z,3.25
2022-11-27T05:34:00.275Z,2.72
2022-11-27T05:36:45.833Z,3.58
2022-11-27T05:39:31.715Z,2.78
2022-11-27T05:42:17.207Z,3.17
2022-11-27T05:45:03.234Z,2.95
2022-11-27T05:47:48.967Z,3.50
2022-11-27T05:50:36.023Z,2.67
2022-11-27T05:53:21.420Z,3.08
2022-11-27T05:56:10.198Z,3.08
2022-11-27T05:58:55.745Z,3.35
2022-11-27T06:01:42.468Z,3.03
2022-11-27T06:04:27.959Z,3.17
2022-11-27T06:07:14.742Z,3.17
2022-11-27T06:10:00.299Z,3.03
2022-11-27T06:12:45.951Z,3.33
2022-11-27T06:15:31.824Z,3.53
2022-11-27T06:18:17.511Z,3.33
2022-11-27T06:21:07.286Z,3.40
2022-11-27T06:23:55.943Z,3.83
2022-11-27T06:26:41.733Z,3.60
2022-11-27T06:29:27.267Z,3.75
2022-11-27T06:32:13.129Z,3.70
2022-11-27T06:34:58.752Z,3.88
2022-11-27T06:37:44.593Z,3.67
2022-11-27T06:40:31.353Z,3.30
2022-11-27T06:43:16.803Z,3.72
2022-11-27T06:46:04.216Z,4.25
2022-11-27T06:48:52.032Z,3.65
2022-11-27T06:51:37.609Z,3.58
2022-11-27T06:54:23.600Z,3.90
2022-11-27T06:57:11.352Z,3.60
2022-11-27T06:59:56.850Z,4.03
2022-11-27T07:02:42.577Z,3.90
2022-11-27T07:05:29.934Z,3.97
2022-11-27T07:08:15.521Z,4.05
2022-11-27T07:11:02.473Z,4.10
2022-11-27T07:13:50.816Z,3.80
2022-11-27T07:16:36.899Z,4.05
2022-11-27T07:19:22.576Z,4.65
2022-11-27T07:22:08.089Z,4.65
2022-11-27T07:24:55.424Z,4.20
2022-11-27T07:27:41.138Z,4.50
2022-11-27T07:30:28.231Z,4.78
2022-11-27T07:33:13.719Z,5.47
2022-11-27T07:36:00.183Z,4.55
2022-11-27T07:38:46.550Z,4.70
2022-11-27T07:41:34.076Z,4.88
2022-11-27T07:44:19.937Z,5.45
2022-11-27T07:47:06.968Z,4.85
2022-11-27T07:49:55.126Z,4.72
2022-11-27T07:52:42.219Z,5.75
2022-11-27T07:55:28.315Z,5.82
2022-11-27T07:58:13.898Z,5.38
2022-11-27T08:00:59.367Z,5.50
2022-11-27T08:03:47.186Z,5.55
2022-11-27T08:06:32.558Z,6.15
2022-11-27T08:09:18.068Z,6.38
2022-11-27T08:12:03.973Z,5.82
2022-11-27T08:14:49.884Z,5.68
2022-11-27T08:17:35.461Z,6.50
2022-11-27T08:20:22.707Z,5.80
2022-11-27T08:23:08.566Z,8.13
2022-11-27T08:25:54.245Z,7.43
2022-11-27T08:28:40.346Z,6.68
2022-11-27T08:31:26.255Z,6.30
2022-11-27T08:34:12.196Z,6.60
2022-11-27T08:36:59.974Z,7.03
2022-11-27T08:39:45.956Z,7.90
2022-11-27T08:42:31.848Z,7.18
2022-11-27T08:45:17.989Z,6.90
2022-11-27T08:48:04.202Z,6.28
2022-11-27T08:50:50.690Z,6.55
2022-11-27T08:53:37.965Z,6.50
2022-11-27T08:56:25.933Z,6.50
2022-11-27T08:59:11.748Z,7.20
2022-11-27T09:01:57.539Z,6.85
2022-11-27T09:04:43.767Z,6.93
2022-11-27T09:07:30.194Z,6.65
2022-11-27T09:10:17.840Z,7.60
2022-11-27T09:13:03.605Z,7.05
2022-11-27T09:15:49.333Z,6.95
2022-11-27T09:18:35.269Z,7.13
2022-11-27T09:21:22.887Z,7.13
2022-11-27T09:24:09.994Z,6.80
2022-11-27T09:26:57.272Z,7.53
2022-11-27T09:29:42.935Z,7.93
2022-11-27T09:54:56.816Z,7.10
2022-11-27T09:57:46.314Z,6.65
2022-11-27T10:28:59.218Z,6.40
2022-11-27T11:39:58.082Z,8.23
2022-11-27T12:02:58.192Z,7.00
2022-11-27T12:08:53.842Z,6.80
2022-11-27T12:11:45.384Z,6.73
2022-11-27T14:43:08.171Z,8.50
2022-11-27T14:45:57.436Z,8.35
2022-11-27T14:48:46.055Z,8.45
2022-11-27T15:43:01.908Z,6.60
2022-11-27T15:45:49.363Z,8.10
2022-11-27T15:59:38.017Z,5.65
2022-11-27T16:02:28.385Z,6.50
2022-11-27T16:05:14.438Z,5.65
2022-11-27T16:08:00.308Z,5.57
2022-11-27T16:10:45.842Z,5.57
2022-11-27T16:13:31.725Z,5.75
2022-11-27T16:24:38.652Z,5.90
2022-11-27T16:44:08.904Z,6.00
2022-11-27T16:52:27.629Z,7.00
2022-11-27T16:55:13.581Z,5.97
2022-11-27T16:58:00.283Z,6.30
2022-11-27T17:00:48.445Z,6.95
2022-11-27T17:03:34.766Z,6.70
2022-11-27T17:06:24.977Z,5.63
2022-11-27T17:09:12.709Z,6.00
2022-11-27T17:11:58.694Z,6.00
2022-11-27T17:14:47.202Z,6.38
2022-11-27T17:20:26.624Z,9.00
2022-11-27T17:26:06.543Z,7.07
2022-11-27T17:28:56.320Z,7.32
2022-11-27T17:40:01.754Z,7.55
2022-11-27T17:45:34.210Z,7.85
2022-11-27T17:48:19.851Z,6.85
2022-11-27T17:51:07.047Z,6.85
2022-11-27T17:53:53.652Z,6.95
2022-11-27T17:56:39.645Z,7.43
2022-11-27T18:07:43.735Z,8.30
2022-11-27T18:10:29.987Z,8.73
2022-11-27T18:13:16.837Z,7.47
2022-11-27T18:16:07.308Z,6.95
2022-11-27T18:18:54.232Z,7.05
2022-11-27T18:24:27.243Z,6.65
2022-11-27T18:27:15.688Z,6.53
2022-11-27T18:30:01.255Z,7.43
2022-11-27T18:32:46.878Z,6.38
2022-11-27T18:35:32.410Z,7.65
2022-11-27T18:38:19.389Z,6.53
2022-11-27T18:41:07.157Z,6.40
2022-11-27T18:43:53.642Z,6.82
2022-11-27T18:52:12.504Z,7.47
2022-11-27T18:55:00.746Z,7.20
2022-11-27T18:57:47.059Z,7.68
2022-11-27T19:00:32.833Z,7.15
2022-11-27T19:03:18.978Z,9.75
2022-11-27T19:06:08.128Z,7.53
2022-11-27T19:08:54.068Z,7.60
2022-11-27T19:11:42.148Z,7.30
2022-11-27T19:17:13.950Z,7.13
2022-11-27T19:20:00.328Z,7.45
2022-11-27T19:22:47.238Z,9.50
2022-11-27T19:28:24.778Z,7.50
2022-11-27T19:31:12.928Z,7.05
2022-11-27T19:34:00.498Z,7.88
2022-11-27T19:36:47.517Z,7.22
2022-11-27T19:39:34.182Z,7.45
2022-11-27T19:42:20.374Z,7.68
2022-11-27T19:45:10.090Z,8.27
2022-11-27T19:47:55.780Z,7.57
2022-11-27T20:24:02.353Z,7.63
2022-11-27T20:26:48.319Z,8.80
2022-11-27T21:36:23.952Z,7.50
2022-11-27T21:39:13.956Z,7.43
2022-11-27T21:41:59.971Z,7.53
2022-11-27T21:44:51.163Z,7.57
2022-11-27T21:50:28.491Z,7.47
2022-11-27T21:53:16.550Z,7.07
2022-11-27T21:56:05.264Z,7.60
2022-11-27T21:58:51.854Z,9.50
2022-11-27T22:01:38.853Z,8.80
2022-11-27T22:26:51.611Z,9.68
2022-11-27T22:29:43.634Z,9.63
2022-11-27T22:35:23.899Z,9.25
2022-11-27T22:52:14.545Z,8.60
2022-11-27T22:55:04.248Z,8.55
2022-11-27T22:57:57.282Z,8.68
2022-11-27T23:00:44.702Z,9.35
2022-11-27T23:03:34.750Z,8.40
2022-11-27T23:06:27.422Z,8.50
2022-11-27T23:09:20.268Z,9.00
2022-11-27T23:12:07.532Z,8.05
2022-11-27T23:15:00.845Z,8.18
2022-11-27T23:17:52.901Z,8.05
2022-11-27T23:20:45.896Z,8.20
2022-11-27T23:23:38.182Z,7.80
2022-11-27T23:57:29.958Z,8.38
